createdAt,value
2023-03-27T00:00:32.286Z,76.60
2023-03-27T00:03:18.031Z,76.80
2023-03-27T00:06:07.103Z,76.60
2023-03-27T00:08:52.656Z,76.30
2023-03-27T00:11:38.293Z,76.40
2023-03-27T00:14:45.153Z,77.30
2023-03-27T00:17:35.179Z,77.50
2023-03-27T00:20:23.158Z,78.30
2023-03-27T00:23:09.101Z,79.10
2023-03-27T00:25:58.101Z,79.50
2023-03-27T00:28:43.870Z,79.70
2023-03-27T00:31:29.620Z,80.00
2023-03-27T00:34:15.514Z,80.80
2023-03-27T00:37:01.059Z,81.90
2023-03-27T00:39:50.126Z,81.20
2023-03-27T00:42:36.174Z,81.40
2023-03-27T00:45:30.225Z,81.50
2023-03-27T00:48:16.646Z,81.60
2023-03-27T00:51:03.993Z,81.80
2023-03-27T00:53:51.011Z,82.10
2023-03-27T00:56:46.517Z,82.20
2023-03-27T00:59:36.638Z,82.60
2023-03-27T01:02:22.767Z,82.70
2023-03-27T01:05:20.181Z,82.90
2023-03-27T01:08:11.749Z,83.10
2023-03-27T01:11:35.307Z,83.50
2023-03-27T01:14:32.656Z,83.60
2023-03-27T01:17:20.878Z,84.10
2023-03-27T01:20:32.479Z,83.20
2023-03-27T01:23:59.680Z,83.20
2023-03-27T01:27:01.461Z,83.30
2023-03-27T01:30:04.375Z,84.10
2023-03-27T01:33:26.151Z,85.40
2023-03-27T01:36:58.996Z,86.40
2023-03-27T01:40:14.562Z,86.60
2023-03-27T01:43:07.978Z,86.50
2023-03-27T01:46:00.947Z,86.90
2023-03-27T01:48:57.575Z,87.30
2023-03-27T01:51:57.691Z,87.30
2023-03-27T01:54:53.202Z,87.40
2023-03-27T01:57:49.720Z,86.80
2023-03-27T02:00:51.390Z,86.60
2023-03-27T02:03:50.240Z,86.50
2023-03-27T02:06:49.866Z,86.10
2023-03-27T02:09:44.973Z,86.00
2023-03-27T02:12:38.672Z,86.00
2023-03-27T02:15:30.605Z,86.40
2023-03-27T02:19:01.705Z,86.50
2023-03-27T02:21:50.581Z,86.40
2023-03-27T02:24:36.348Z,86.40
2023-03-27T02:27:45.039Z,86.60
2023-03-27T02:30:35.196Z,86.80
2023-03-27T02:33:36.699Z,87.50
2023-03-27T02:36:49.248Z,86.80
2023-03-27T02:40:01.268Z,86.80
2023-03-27T02:43:11.110Z,86.80
2023-03-27T02:46:10.139Z,86.90
2023-03-27T02:48:58.753Z,87.10
2023-03-27T02:51:57.451Z,87.30
2023-03-27T02:55:02.229Z,87.30
2023-03-27T02:57:51.577Z,87.20
2023-03-27T03:01:12.803Z,87.30
2023-03-27T03:04:24.425Z,87.00
2023-03-27T03:07:30.655Z,86.70
2023-03-27T03:10:19.772Z,86.90
2023-03-27T03:13:05.174Z,86.80
2023-03-27T03:15:50.954Z,87.10
2023-03-27T03:18:39.665Z,87.40
2023-03-27T03:21:25.789Z,88.00
2023-03-27T03:24:12.307Z,88.80
2023-03-27T03:27:00.059Z,89.30
2023-03-27T03:29:46.618Z,89.50
2023-03-27T03:32:43.628Z,89.50
2023-03-27T03:35:31.820Z,89.50
2023-03-27T03:38:26.893Z,89.20
2023-03-27T03:41:13.736Z,89.00
2023-03-27T03:44:05.088Z,88.70
2023-03-27T03:46:54.465Z,88.70
2023-03-27T03:49:43.554Z,88.40
2023-03-27T03:52:30.474Z,88.00
2023-03-27T03:55:19.450Z,87.60
2023-03-27T03:58:09.490Z,87.00
2023-03-27T04:00:56.331Z,86.80
2023-03-27T04:03:53.675Z,86.80
2023-03-27T04:06:43.250Z,86.60
2023-03-27T04:09:29.257Z,86.50
2023-03-27T04:12:26.025Z,86.30
2023-03-27T04:15:17.690Z,86.40
2023-03-27T04:18:32.582Z,86.60
2023-03-27T04:21:21.278Z,86.60
2023-03-27T04:24:08.392Z,86.90
2023-03-27T04:27:05.761Z,86.90
2023-03-27T04:30:02.367Z,87.00
2023-03-27T04:32:51.970Z,87.30
2023-03-27T04:36:06.894Z,87.40
2023-03-27T04:39:16.641Z,88.00
2023-03-27T04:42:02.883Z,88.50
2023-03-27T04:44:55.023Z,89.40
2023-03-27T04:47:40.941Z,90.00
2023-03-27T04:50:27.745Z,90.10
2023-03-27T04:53:13.741Z,90.50
2023-03-27T04:56:05.698Z,90.70
2023-03-27T04:58:54.970Z,90.60
2023-03-27T05:01:43.152Z,90.50
2023-03-27T05:04:29.461Z,90.40
2023-03-27T05:07:48.690Z,90.40
2023-03-27T05:10:38.927Z,90.50
2023-03-27T05:13:24.610Z,90.40
2023-03-27T05:16:10.584Z,90.10
2023-03-27T05:19:03.809Z,89.70
2023-03-27T05:21:57.063Z,89.20
2023-03-27T05:24:42.787Z,89.00
2023-03-27T05:27:31.786Z,88.50
2023-03-27T05:30:21.069Z,88.20
2023-03-27T05:33:18.149Z,88.20
2023-03-27T05:36:06.005Z,88.40
2023-03-27T05:38:54.423Z,88.30
2023-03-27T05:41:54.925Z,89.30
2023-03-27T05:44:44.064Z,89.00
2023-03-27T05:47:30.094Z,89.50
2023-03-27T05:50:17.287Z,90.10
2023-03-27T05:53:10.165Z,90.10
2023-03-27T05:56:02.826Z,90.00
2023-03-27T05:58:55.738Z,89.50
2023-03-27T06:01:42.910Z,89.50
2023-03-27T06:04:34.422Z,89.40
2023-03-27T06:07:33.106Z,89.30
2023-03-27T06:10:23.652Z,89.30
2023-03-27T06:13:15.199Z,89.40
2023-03-27T06:16:23.381Z,89.30
2023-03-27T06:19:32.772Z,89.40
2023-03-27T06:22:18.331Z,89.60
2023-03-27T06:25:06.948Z,89.90
2023-03-27T06:27:56.385Z,90.00
2023-03-27T06:30:42.207Z,90.20
2023-03-27T06:33:47.703Z,89.90
2023-03-27T06:36:53.377Z,89.40
2023-03-27T06:39:39.362Z,88.90
2023-03-27T06:42:26.071Z,88.70
2023-03-27T06:45:46.401Z,88.80
2023-03-27T06:48:39.582Z,88.90
2023-03-27T06:51:26.984Z,88.70
2023-03-27T06:54:13.918Z,88.60
2023-03-27T06:57:04.558Z,88.70
2023-03-27T07:00:14.024Z,88.90
2023-03-27T07:03:22.847Z,89.40
2023-03-27T07:06:34.778Z,89.50
2023-03-27T07:09:26.677Z,88.50
2023-03-27T07:12:20.545Z,88.30
2023-03-27T07:15:10.581Z,88.30
2023-03-27T07:17:57.599Z,88.70
2023-03-27T07:20:44.801Z,89.00
2023-03-27T07:23:34.360Z,89.00
2023-03-27T07:26:22.444Z,88.90
2023-03-27T07:29:19.639Z,88.00
2023-03-27T07:32:09.991Z,86.70
2023-03-27T07:35:05.326Z,84.10
2023-03-27T07:38:11.566Z,81.80
2023-03-27T07:41:06.804Z,80.10
2023-03-27T07:44:12.070Z,80.50
2023-03-27T07:47:16.717Z,81.40
2023-03-27T07:50:03.772Z,81.80
2023-03-27T07:52:49.159Z,82.40
2023-03-27T07:55:40.365Z,83.40
2023-03-27T07:58:26.621Z,83.10
2023-03-27T08:01:14.358Z,82.20
2023-03-27T08:04:00.663Z,81.20
2023-03-27T08:06:51.685Z,80.80
2023-03-27T08:09:39.863Z,80.70
2023-03-27T08:12:26.183Z,80.50
2023-03-27T08:15:18.987Z,80.60
2023-03-27T08:18:05.148Z,81.10
2023-03-27T08:20:55.884Z,81.30
2023-03-27T08:23:52.083Z,81.60
2023-03-27T08:26:59.948Z,81.30
2023-03-27T08:29:45.612Z,82.50
2023-03-27T08:32:31.768Z,82.70
2023-03-27T08:35:23.988Z,80.70
2023-03-27T08:38:23.724Z,76.40
2023-03-27T08:41:27.887Z,76.30
2023-03-27T08:44:34.897Z,76.40
2023-03-27T08:47:46.003Z,76.30
2023-03-27T08:50:49.719Z,75.90
2023-03-27T08:53:57.009Z,76.60
2023-03-27T08:56:47.355Z,77.40
2023-03-27T08:59:32.662Z,77.40
2023-03-27T09:02:29.398Z,77.70
2023-03-27T09:05:33.250Z,77.00
2023-03-27T09:08:50.051Z,77.10
2023-03-27T09:12:04.677Z,77.60
2023-03-27T09:15:26.156Z,76.20
2023-03-27T09:18:34.374Z,71.20
2023-03-27T09:21:22.701Z,70.90
2023-03-27T09:24:24.342Z,71.70
2023-03-27T09:27:37.655Z,71.10
2023-03-27T09:30:43.644Z,72.40
2023-03-27T09:33:35.021Z,73.40
2023-03-27T09:36:21.868Z,73.90
2023-03-27T09:39:21.747Z,74.50
2023-03-27T09:42:17.018Z,75.20
2023-03-27T09:45:07.971Z,74.40
2023-03-27T09:48:16.468Z,74.20
2023-03-27T09:51:03.980Z,74.00
2023-03-27T09:53:58.785Z,73.50
2023-03-27T09:56:55.245Z,72.30
2023-03-27T10:00:09.667Z,70.90
2023-03-27T10:03:13.637Z,71.00
2023-03-27T10:06:19.155Z,70.80
2023-03-27T10:09:29.829Z,70.60
2023-03-27T10:12:21.754Z,70.90
2023-03-27T10:15:30.456Z,72.30
2023-03-27T10:18:22.269Z,73.20
2023-03-27T10:21:26.904Z,74.00
2023-03-27T10:24:21.645Z,74.80
2023-03-27T10:27:31.690Z,75.10
2023-03-27T10:31:09.990Z,75.20
2023-03-27T10:34:33.041Z,74.80
2023-03-27T10:37:41.391Z,74.30
2023-03-27T10:40:58.769Z,73.70
2023-03-27T10:43:57.451Z,69.80
2023-03-27T10:46:43.687Z,67.30
2023-03-27T10:49:47.195Z,67.50
2023-03-27T10:53:22.093Z,67.00
2023-03-27T10:56:29.308Z,68.10
2023-03-27T10:59:31.171Z,67.70
2023-03-27T11:02:40.497Z,67.60
2023-03-27T11:05:38.741Z,64.60
2023-03-27T11:08:43.168Z,65.00
2023-03-27T11:11:36.880Z,63.50
2023-03-27T11:14:38.591Z,60.40
2023-03-27T11:17:54.027Z,61.40
2023-03-27T11:21:03.597Z,60.60
2023-03-27T11:24:38.223Z,62.10
2023-03-27T11:27:43.182Z,60.50
2023-03-27T11:30:51.190Z,59.00
2023-03-27T11:34:06.241Z,57.60
2023-03-27T11:37:04.697Z,57.40
2023-03-27T11:40:22.522Z,56.90
2023-03-27T11:43:16.656Z,57.10
2023-03-27T11:46:10.569Z,59.20
2023-03-27T11:49:21.326Z,62.10
2023-03-27T11:52:25.794Z,57.80
2023-03-27T11:55:27.246Z,54.30
2023-03-27T11:58:42.610Z,55.50
2023-03-27T12:01:40.084Z,55.20
2023-03-27T12:04:34.469Z,54.00
2023-03-27T12:08:04.788Z,52.50
2023-03-27T12:10:54.858Z,50.30
2023-03-27T12:14:00.451Z,47.30
2023-03-27T12:17:09.056Z,44.10
2023-03-27T12:20:29.752Z,41.70
2023-03-27T12:23:49.507Z,37.80
2023-03-27T12:27:19.751Z,34.50
2023-03-27T12:31:01.783Z,33.10
2023-03-27T12:34:01.212Z,31.00
2023-03-27T12:36:48.350Z,29.70
2023-03-27T12:39:53.410Z,29.80
2023-03-27T12:42:47.977Z,28.70
2023-03-27T12:45:44.188Z,29.60
2023-03-27T12:49:07.657Z,30.00
2023-03-27T12:52:06.886Z,29.90
2023-03-27T12:55:18.705Z,29.70
2023-03-27T12:58:35.029Z,30.60
2023-03-27T13:01:51.744Z,32.10
2023-03-27T13:04:58.619Z,30.70
2023-03-27T13:08:00.148Z,31.40
2023-03-27T13:11:35.970Z,33.70
2023-03-27T13:15:00.984Z,32.60
2023-03-27T13:18:07.430Z,30.50
2023-03-27T13:21:36.324Z,31.60
2023-03-27T13:24:28.260Z,33.50
2023-03-27T13:27:47.765Z,36.50
2023-03-27T13:30:53.224Z,34.80
2023-03-27T13:34:26.978Z,35.00
2023-03-27T13:37:18.068Z,34.20
2023-03-27T13:40:26.700Z,38.00
2023-03-27T13:43:28.305Z,41.90
2023-03-27T13:46:29.313Z,44.70
2023-03-27T13:50:02.759Z,45.80
2023-03-27T13:52:58.530Z,47.40
2023-03-27T13:56:34.999Z,46.40
2023-03-27T13:59:42.533Z,46.90
2023-03-27T14:03:08.216Z,45.10
2023-03-27T14:06:20.219Z,43.50
2023-03-27T14:09:42.980Z,34.90
2023-03-27T14:13:04.323Z,30.70
2023-03-27T14:16:36.115Z,29.30
2023-03-27T14:19:39.387Z,29.90
2023-03-27T14:22:53.713Z,27.90
2023-03-27T14:25:49.283Z,25.30
2023-03-27T14:28:51.865Z,25.30
2023-03-27T14:31:47.292Z,23.20
2023-03-27T14:34:54.303Z,24.30
2023-03-27T14:38:14.645Z,23.20
2023-03-27T14:41:08.679Z,23.10
2023-03-27T14:44:21.488Z,24.60
2023-03-27T14:47:12.693Z,25.30
2023-03-27T14:50:01.863Z,24.10
2023-03-27T14:52:58.653Z,23.40
2023-03-27T14:55:50.007Z,22.80
2023-03-27T14:59:03.164Z,21.80
2023-03-27T15:02:17.065Z,20.20
2023-03-27T15:05:14.917Z,20.10
2023-03-27T15:08:13.010Z,20.30
2023-03-27T15:11:24.255Z,19.30
2023-03-27T15:14:28.786Z,21.10
2023-03-27T15:17:22.204Z,24.20
2023-03-27T15:20:11.363Z,25.80
2023-03-27T15:23:19.070Z,25.50
2023-03-27T15:26:15.052Z,24.40
2023-03-27T15:29:14.219Z,23.80
2023-03-27T15:32:08.999Z,22.80
2023-03-27T15:34:58.024Z,22.70
2023-03-27T15:37:43.901Z,21.70
2023-03-27T15:40:42.996Z,20.90
2023-03-27T15:43:30.038Z,20.00
2023-03-27T15:46:18.376Z,19.80
2023-03-27T15:49:24.365Z,21.10
2023-03-27T15:52:33.134Z,23.20
2023-03-27T15:55:39.246Z,23.40
2023-03-27T15:58:32.518Z,25.50
2023-03-27T16:01:22.417Z,26.20
2023-03-27T16:04:14.586Z,28.10
2023-03-27T16:07:17.076Z,29.30
2023-03-27T16:10:06.818Z,31.20
2023-03-27T16:12:58.302Z,32.10
2023-03-27T16:15:45.475Z,29.60
2023-03-27T16:18:34.666Z,26.80
2023-03-27T16:21:26.319Z,28.00
2023-03-27T16:24:11.848Z,29.80
2023-03-27T16:26:57.692Z,31.50
2023-03-27T16:29:43.341Z,31.00
2023-03-27T16:32:31.959Z,29.50
2023-03-27T16:35:18.062Z,30.80
2023-03-27T16:38:03.746Z,29.70
2023-03-27T16:40:49.806Z,28.50
2023-03-27T16:43:35.039Z,27.10
2023-03-27T16:46:26.716Z,26.10
2023-03-27T16:49:13.246Z,26.10
2023-03-27T16:51:58.607Z,27.50
2023-03-27T16:54:47.406Z,27.20
2023-03-27T16:57:33.861Z,27.80
2023-03-27T17:00:20.044Z,26.80
2023-03-27T17:03:05.580Z,26.00
2023-03-27T17:05:50.971Z,25.00
2023-03-27T17:08:37.208Z,25.20
2023-03-27T17:11:23.310Z,25.20
2023-03-27T17:14:12.363Z,25.40
2023-03-27T17:17:00.465Z,25.60
2023-03-27T17:19:50.758Z,25.80
2023-03-27T17:22:39.063Z,26.10
2023-03-27T17:25:30.779Z,26.30
2023-03-27T17:28:17.450Z,27.20
2023-03-27T17:31:05.002Z,29.00
2023-03-27T17:33:51.256Z,31.40
2023-03-27T17:36:44.873Z,37.40
2023-03-27T17:39:34.924Z,41.00
2023-03-27T17:42:20.356Z,44.80
2023-03-27T17:45:10.957Z,47.80
2023-03-27T17:47:56.531Z,50.10
2023-03-27T17:50:42.031Z,52.30
2023-03-27T17:53:28.973Z,53.10
2023-03-27T17:56:14.212Z,53.70
2023-03-27T17:59:00.154Z,54.10
2023-03-27T18:01:47.016Z,54.50
2023-03-27T18:04:33.178Z,55.00
2023-03-27T18:07:22.977Z,55.60
2023-03-27T18:10:10.161Z,56.40
2023-03-27T18:12:59.619Z,57.00
2023-03-27T18:15:46.483Z,57.70
2023-03-27T18:18:32.902Z,58.20
2023-03-27T18:21:18.226Z,59.50
2023-03-27T18:24:03.968Z,60.30
2023-03-27T18:26:59.669Z,60.30
2023-03-27T18:29:45.177Z,60.60
2023-03-27T18:32:33.901Z,61.30
2023-03-27T18:35:20.412Z,61.70
2023-03-27T18:38:06.519Z,62.30
2023-03-27T18:40:53.904Z,63.00
2023-03-27T18:43:39.312Z,63.60
2023-03-27T18:46:25.246Z,63.90
2023-03-27T18:49:23.687Z,64.70
2023-03-27T18:52:12.012Z,65.60
2023-03-27T18:54:58.539Z,65.80
2023-03-27T18:57:44.987Z,65.90
2023-03-27T19:00:30.139Z,67.70
2023-03-27T19:03:18.148Z,68.40
2023-03-27T19:06:06.250Z,68.70
2023-03-27T19:08:51.587Z,68.30
2023-03-27T19:11:38.264Z,68.40
2023-03-27T19:14:43.234Z,68.40
2023-03-27T19:17:43.243Z,68.60
2023-03-27T19:21:08.178Z,69.00
2023-03-27T19:24:01.507Z,69.40
2023-03-27T19:26:52.982Z,69.90
2023-03-27T19:29:38.566Z,70.00
2023-03-27T19:32:24.438Z,70.20
2023-03-27T19:35:10.031Z,71.00
2023-03-27T19:37:55.288Z,71.20
2023-03-27T19:40:40.865Z,71.20
2023-03-27T19:43:26.467Z,71.60
2023-03-27T19:46:16.386Z,71.70
2023-03-27T19:49:02.731Z,72.30
2023-03-27T19:52:09.185Z,72.60
2023-03-27T19:54:55.016Z,72.60
2023-03-27T19:57:42.459Z,72.60
2023-03-27T20:00:31.419Z,72.90
2023-03-27T20:03:19.676Z,73.00
2023-03-27T20:06:11.929Z,73.20
2023-03-27T20:09:00.964Z,73.50
2023-03-27T20:11:47.269Z,73.70
2023-03-27T20:14:32.946Z,73.60
2023-03-27T20:17:27.985Z,74.00
2023-03-27T20:20:13.884Z,73.80
2023-03-27T20:23:01.540Z,73.80
2023-03-27T20:25:51.610Z,73.70
2023-03-27T20:28:36.984Z,74.20
2023-03-27T20:31:22.601Z,74.50
2023-03-27T20:34:08.489Z,74.40
2023-03-27T20:36:54.739Z,74.40
2023-03-27T20:39:53.720Z,75.70
2023-03-27T20:42:47.088Z,75.00
2023-03-27T20:45:32.469Z,75.40
2023-03-27T20:48:18.449Z,75.40
2023-03-27T20:51:14.883Z,75.50
2023-03-27T20:54:02.237Z,75.50
2023-03-27T20:56:48.278Z,75.50
2023-03-27T20:59:36.026Z,75.70
2023-03-27T21:02:21.994Z,76.00
2023-03-27T21:05:07.462Z,76.30
2023-03-27T21:07:59.996Z,76.50
2023-03-27T21:10:53.965Z,76.60
2023-03-27T21:13:39.155Z,76.60
2023-03-27T21:16:26.084Z,77.10
2023-03-27T21:19:13.250Z,77.40
2023-03-27T21:21:59.478Z,77.40
2023-03-27T21:24:44.837Z,77.40
2023-03-27T21:27:30.974Z,77.80
2023-03-27T21:30:17.416Z,78.30
2023-03-27T21:33:04.104Z,79.00
2023-03-27T21:35:50.031Z,78.50
2023-03-27T21:38:35.878Z,78.50
2023-03-27T21:41:21.705Z,78.80
2023-03-27T21:44:07.706Z,78.80
2023-03-27T21:46:53.158Z,78.90
2023-03-27T21:49:38.695Z,79.10
2023-03-27T21:52:24.510Z,79.40
2023-03-27T21:55:10.092Z,79.40
2023-03-27T21:57:55.763Z,79.70
2023-03-27T22:00:41.313Z,79.70
2023-03-27T22:03:28.416Z,79.30
2023-03-27T22:06:13.931Z,79.20
2023-03-27T22:09:00.430Z,79.50
2023-03-27T22:11:46.738Z,79.70
2023-03-27T22:14:32.303Z,79.90
2023-03-27T22:17:17.992Z,80.20
2023-03-27T22:20:05.116Z,80.70
2023-03-27T22:22:50.839Z,80.90
2023-03-27T22:25:36.436Z,81.40
2023-03-27T22:28:22.071Z,80.20
2023-03-27T22:31:07.871Z,80.00
2023-03-27T22:33:54.071Z,80.20
2023-03-27T22:36:39.690Z,80.40
2023-03-27T22:39:25.465Z,80.70
2023-03-27T22:42:12.389Z,81.30
2023-03-27T22:44:58.155Z,81.50
2023-03-27T22:47:46.425Z,81.60
2023-03-27T22:50:32.391Z,81.70
2023-03-27T22:53:18.028Z,82.10
2023-03-27T22:56:05.139Z,82.30
2023-03-27T22:58:50.838Z,82.60
2023-03-27T23:01:37.477Z,82.90
2023-03-27T23:04:23.385Z,82.60
2023-03-27T23:07:08.957Z,82.20
2023-03-27T23:09:54.300Z,82.10
2023-03-27T23:12:40.002Z,82.10
2023-03-27T23:15:29.920Z,82.20
2023-03-27T23:18:16.276Z,82.20
2023-03-27T23:21:06.871Z,82.30
2023-03-27T23:23:52.285Z,82.50
2023-03-27T23:26:38.177Z,82.40
2023-03-27T23:29:23.532Z,82.40
2023-03-27T23:32:09.294Z,82.80
2023-03-27T23:34:55.576Z,82.70
2023-03-27T23:37:42.740Z,82.90
2023-03-27T23:40:28.203Z,83.20
2023-03-27T23:43:14.407Z,83.40
2023-03-27T23:46:00.245Z,83.50
2023-03-27T23:48:46.630Z,83.50
2023-03-27T23:51:32.629Z,83.70
2023-03-27T23:54:18.540Z,83.80
2023-03-27T23:57:04.255Z,83.80
2023-03-27T23:59:53.160Z,83.90
